METAR and TAF’s


Available data for KLBB from the past 2 hours
LUBBOCK, TX
Metar
KLBB 211753Z 06010KT 10SM OVC013 08/03 A2999 RMK AO2 SLP138 60000 T00830033 10122 20061 58001

17:53 UTC

Wind: 60° 10kt

Visibility: 10 SM

Sky: OVC 1300 ft

Temp: 8 deg C / 46.4 deg F

Dewpoint: 3 deg C / 37.4 deg F

Pressure: 29.99 inHg

TAF
KLBB 211720Z 2118/2218 05010KT P6SM OVC015 FM220400 08009KT 5SM -RA OVC008 FM221200 01011KT P6SM OVC010
Pireps (3)
LBB UA /OV KLBB/TM 1748/FL083/TP E50P/SK T083
LBB UA /OV LBB170004/TM 1731/FL045/TP CRJ9/SK B045/RM DURD
LBB UA /OV KLBB/TM 1637/FL040/TP BE40/SK B040 DURC
Available data for KCVN from the past 2 hours
CLOVIS MUNI, NM
Metar
KCVN 211756Z AUTO 04013KT 10SM OVC009 03/01 A3003 RMK AO2 SLP174 T00330011 10039 20011 50000

17:56 UTC

Wind: 40° 13kt

Visibility: 10 SM

Sky: OVC 900 ft

Temp: 3 deg C / 37.4 deg F

Dewpoint: 1 deg C / 33.8 deg F

Pressure: 30.03 inHg